sensor_id;sensor_type;location;lat;lon;timestamp;P1;durP1;ratioP1;P2;durP2;ratioP2
59907;SDS011;61804;54.926;73.496;2023-03-14T00:01:33;5.18;;;3.28;;
59907;SDS011;61804;54.926;73.496;2023-03-14T00:04:07;6.50;;;5.88;;
59907;SDS011;61804;54.926;73.496;2023-03-14T00:06:53;5.38;;;3.58;;
59907;SDS011;61804;54.926;73.496;2023-03-14T00:09:44;7.15;;;5.45;;
59907;SDS011;61804;54.926;73.496;2023-03-14T00:12:40;6.68;;;4.20;;
59907;SDS011;61804;54.926;73.496;2023-03-14T00:15:27;4.00;;;3.47;;
59907;SDS011;61804;54.926;73.496;2023-03-14T00:18:13;7.47;;;4.30;;
59907;SDS011;61804;54.926;73.496;2023-03-14T00:21:00;5.15;;;4.18;;
59907;SDS011;61804;54.926;73.496;2023-03-14T00:23:55;4.60;;;4.20;;
59907;SDS011;61804;54.926;73.496;2023-03-14T00:26:46;4.20;;;3.75;;
59907;SDS011;61804;54.926;73.496;2023-03-14T00:29:43;5.45;;;3.85;;
59907;SDS011;61804;54.926;73.496;2023-03-14T00:32:30;3.72;;;3.25;;
59907;SDS011;61804;54.926;73.496;2023-03-14T00:35:26;6.05;;;4.22;;
59907;SDS011;61804;54.926;73.496;2023-03-14T00:38:12;3.50;;;3.20;;
59907;SDS011;61804;54.926;73.496;2023-03-14T00:43:43;5.32;;;3.05;;
59907;SDS011;61804;54.926;73.496;2023-03-14T00:46:28;4.25;;;2.97;;
59907;SDS011;61804;54.926;73.496;2023-03-14T00:49:14;5.45;;;3.17;;
59907;SDS011;61804;54.926;73.496;2023-03-14T00:52:05;6.43;;;4.07;;
59907;SDS011;61804;54.926;73.496;2023-03-14T00:54:55;6.47;;;3.83;;
59907;SDS011;61804;54.926;73.496;2023-03-14T00:57:33;6.93;;;2.95;;
59907;SDS011;61804;54.926;73.496;2023-03-14T01:00:07;3.63;;;3.28;;
59907;SDS011;61804;54.926;73.496;2023-03-14T01:02:37;6.20;;;3.10;;
59907;SDS011;61804;54.926;73.496;2023-03-14T01:05:15;5.38;;;3.38;;
59907;SDS011;61804;54.926;73.496;2023-03-14T01:07:42;5.80;;;3.53;;
59907;SDS011;61804;54.926;73.496;2023-03-14T01:10:10;4.75;;;3.60;;
59907;SDS011;61804;54.926;73.496;2023-03-14T01:12:43;5.95;;;4.43;;
59907;SDS011;61804;54.926;73.496;2023-03-14T01:15:10;8.25;;;5.38;;
59907;SDS011;61804;54.926;73.496;2023-03-14T01:17:48;7.13;;;3.25;;
59907;SDS011;61804;54.926;73.496;2023-03-14T01:20:36;4.35;;;3.30;;
59907;SDS011;61804;54.926;73.496;2023-03-14T01:23:27;2.88;;;2.40;;
59907;SDS011;61804;54.926;73.496;2023-03-14T01:26:20;5.47;;;2.25;;
59907;SDS011;61804;54.926;73.496;2023-03-14T01:29:07;10.93;;;3.38;;
59907;SDS011;61804;54.926;73.496;2023-03-14T01:31:59;7.70;;;4.65;;
59907;SDS011;61804;54.926;73.496;2023-03-14T01:34:29;4.32;;;3.95;;
59907;SDS011;61804;54.926;73.496;2023-03-14T01:36:57;9.73;;;6.50;;
59907;SDS011;61804;54.926;73.496;2023-03-14T01:39:27;7.03;;;5.90;;
59907;SDS011;61804;54.926;73.496;2023-03-14T01:41:55;6.65;;;3.72;;
59907;SDS011;61804;54.926;73.496;2023-03-14T01:44:28;6.05;;;5.55;;
59907;SDS011;61804;54.926;73.496;2023-03-14T01:46:56;9.60;;;6.28;;
59907;SDS011;61804;54.926;73.496;2023-03-14T01:49:33;5.22;;;4.43;;
59907;SDS011;61804;54.926;73.496;2023-03-14T01:52:23;11.40;;;6.18;;
59907;SDS011;61804;54.926;73.496;2023-03-14T01:54:55;7.43;;;4.55;;
59907;SDS011;61804;54.926;73.496;2023-03-14T01:59:57;11.45;;;3.95;;
59907;SDS011;61804;54.926;73.496;2023-03-14T02:02:24;5.13;;;4.57;;
59907;SDS011;61804;54.926;73.496;2023-03-14T02:04:54;5.30;;;4.80;;
59907;SDS011;61804;54.926;73.496;2023-03-14T02:07:30;9.75;;;6.40;;
59907;SDS011;61804;54.926;73.496;2023-03-14T02:10:20;6.45;;;4.25;;
59907;SDS011;61804;54.926;73.496;2023-03-14T02:15:54;8.75;;;4.90;;
59907;SDS011;61804;54.926;73.496;2023-03-14T02:19:03;10.98;;;5.35;;
59907;SDS011;61804;54.926;73.496;2023-03-14T02:21:56;5.47;;;4.50;;
59907;SDS011;61804;54.926;73.496;2023-03-14T02:27:19;8.68;;;4.50;;
59907;SDS011;61804;54.926;73.496;2023-03-14T02:29:59;7.47;;;5.00;;
59907;SDS011;61804;54.926;73.496;2023-03-14T02:32:29;5.60;;;3.60;;
59907;SDS011;61804;54.926;73.496;2023-03-14T02:35:08;7.00;;;5.40;;
59907;SDS011;61804;54.926;73.496;2023-03-14T02:40:32;23.30;;;16.63;;
59907;SDS011;61804;54.926;73.496;2023-03-14T02:43:01;8.65;;;6.13;;
59907;SDS011;61804;54.926;73.496;2023-03-14T02:45:33;5.28;;;3.88;;
59907;SDS011;61804;54.926;73.496;2023-03-14T02:48:02;15.50;;;9.93;;
59907;SDS011;61804;54.926;73.496;2023-03-14T02:50:36;16.92;;;12.93;;
59907;SDS011;61804;54.926;73.496;2023-03-14T02:53:04;11.43;;;5.80;;
59907;SDS011;61804;54.926;73.496;2023-03-14T02:55:44;6.43;;;4.88;;
59907;SDS011;61804;54.926;73.496;2023-03-14T02:58:12;9.30;;;5.95;;
59907;SDS011;61804;54.926;73.496;2023-03-14T03:00:41;9.73;;;6.70;;
59907;SDS011;61804;54.926;73.496;2023-03-14T03:03:11;7.00;;;4.78;;
59907;SDS011;61804;54.926;73.496;2023-03-14T03:05:47;10.65;;;7.72;;
59907;SDS011;61804;54.926;73.496;2023-03-14T03:08:14;9.50;;;6.40;;
59907;SDS011;61804;54.926;73.496;2023-03-14T03:10:43;5.72;;;5.13;;
59907;SDS011;61804;54.926;73.496;2023-03-14T03:13:10;5.93;;;4.85;;
59907;SDS011;61804;54.926;73.496;2023-03-14T03:15:38;6.95;;;6.30;;
59907;SDS011;61804;54.926;73.496;2023-03-14T03:18:07;4.88;;;4.30;;
59907;SDS011;61804;54.926;73.496;2023-03-14T03:20:35;7.30;;;5.82;;
59907;SDS011;61804;54.926;73.496;2023-03-14T03:23:03;4.57;;;2.75;;
59907;SDS011;61804;54.926;73.496;2023-03-14T03:25:36;4.45;;;3.33;;
59907;SDS011;61804;54.926;73.496;2023-03-14T03:28:10;4.13;;;3.25;;
59907;SDS011;61804;54.926;73.496;2023-03-14T03:30:50;10.80;;;4.13;;
59907;SDS011;61804;54.926;73.496;2023-03-14T03:33:18;7.60;;;4.90;;
59907;SDS011;61804;54.926;73.496;2023-03-14T03:35:58;11.43;;;8.45;;
59907;SDS011;61804;54.926;73.496;2023-03-14T03:38:32;4.50;;;3.55;;
59907;SDS011;61804;54.926;73.496;2023-03-14T03:41:02;8.55;;;6.82;;
59907;SDS011;61804;54.926;73.496;2023-03-14T03:43:30;5.10;;;3.97;;
59907;SDS011;61804;54.926;73.496;2023-03-14T03:45:59;14.82;;;10.93;;
59907;SDS011;61804;54.926;73.496;2023-03-14T03:48:30;8.30;;;6.95;;
59907;SDS011;61804;54.926;73.496;2023-03-14T03:51:02;5.07;;;3.55;;
59907;SDS011;61804;54.926;73.496;2023-03-14T03:53:30;4.35;;;3.35;;
59907;SDS011;61804;54.926;73.496;2023-03-14T03:55:59;5.68;;;2.83;;
59907;SDS011;61804;54.926;73.496;2023-03-14T03:58:27;10.20;;;6.65;;
59907;SDS011;61804;54.926;73.496;2023-03-14T04:01:07;5.20;;;4.05;;
59907;SDS011;61804;54.926;73.496;2023-03-14T04:03:36;4.43;;;4.03;;
59907;SDS011;61804;54.926;73.496;2023-03-14T04:06:07;4.20;;;3.80;;
59907;SDS011;61804;54.926;73.496;2023-03-14T04:08:47;3.63;;;3.33;;
59907;SDS011;61804;54.926;73.496;2023-03-14T04:11:40;4.43;;;3.13;;
59907;SDS011;61804;54.926;73.496;2023-03-14T04:14:24;4.43;;;3.50;;
59907;SDS011;61804;54.926;73.496;2023-03-14T04:17:17;6.35;;;3.50;;
59907;SDS011;61804;54.926;73.496;2023-03-14T04:19:45;4.93;;;2.92;;
59907;SDS011;61804;54.926;73.496;2023-03-14T04:22:13;3.35;;;2.33;;
59907;SDS011;61804;54.926;73.496;2023-03-14T04:24:58;7.68;;;5.47;;
59907;SDS011;61804;54.926;73.496;2023-03-14T04:27:27;8.05;;;5.68;;
59907;SDS011;61804;54.926;73.496;2023-03-14T04:29:55;7.18;;;5.28;;
59907;SDS011;61804;54.926;73.496;2023-03-14T04:32:51;5.38;;;3.28;;
59907;SDS011;61804;54.926;73.496;2023-03-14T04:35:20;7.97;;;5.00;;
59907;SDS011;61804;54.926;73.496;2023-03-14T04:37:58;4.97;;;4.20;;
59907;SDS011;61804;54.926;73.496;2023-03-14T04:40:39;7.32;;;5.80;;
59907;SDS011;61804;54.926;73.496;2023-03-14T04:43:08;6.50;;;3.55;;
59907;SDS011;61804;54.926;73.496;2023-03-14T04:45:47;5.55;;;3.53;;
59907;SDS011;61804;54.926;73.496;2023-03-14T04:48:26;6.90;;;4.22;;
59907;SDS011;61804;54.926;73.496;2023-03-14T04:50:55;3.65;;;2.60;;
59907;SDS011;61804;54.926;73.496;2023-03-14T04:53:34;4.28;;;3.88;;
59907;SDS011;61804;54.926;73.496;2023-03-14T04:56:12;3.05;;;2.75;;
59907;SDS011;61804;54.926;73.496;2023-03-14T04:58:44;7.93;;;2.90;;
59907;SDS011;61804;54.926;73.496;2023-03-14T05:01:25;2.63;;;2.42;;
59907;SDS011;61804;54.926;73.496;2023-03-14T05:04:11;4.38;;;2.85;;
59907;SDS011;61804;54.926;73.496;2023-03-14T05:06:55;4.53;;;3.65;;
59907;SDS011;61804;54.926;73.496;2023-03-14T05:09:34;2.00;;;1.70;;
59907;SDS011;61804;54.926;73.496;2023-03-14T05:12:19;3.47;;;3.17;;
59907;SDS011;61804;54.926;73.496;2023-03-14T05:15:17;3.05;;;2.65;;
59907;SDS011;61804;54.926;73.496;2023-03-14T05:21:02;4.20;;;2.90;;
59907;SDS011;61804;54.926;73.496;2023-03-14T05:23:53;2.80;;;2.60;;
59907;SDS011;61804;54.926;73.496;2023-03-14T05:26:41;2.47;;;2.28;;
59907;SDS011;61804;54.926;73.496;2023-03-14T05:29:26;6.10;;;3.70;;
59907;SDS011;61804;54.926;73.496;2023-03-14T05:32:16;5.38;;;2.88;;
59907;SDS011;61804;54.926;73.496;2023-03-14T05:34:56;8.38;;;3.55;;
59907;SDS011;61804;54.926;73.496;2023-03-14T05:37:50;4.15;;;2.95;;
59907;SDS011;61804;54.926;73.496;2023-03-14T05:43:21;2.60;;;2.03;;
59907;SDS011;61804;54.926;73.496;2023-03-14T05:46:12;6.55;;;2.88;;
59907;SDS011;61804;54.926;73.496;2023-03-14T05:48:56;7.35;;;3.90;;
59907;SDS011;61804;54.926;73.496;2023-03-14T05:51:46;4.95;;;3.70;;
59907;SDS011;61804;54.926;73.496;2023-03-14T05:54:32;2.60;;;2.40;;
59907;SDS011;61804;54.926;73.496;2023-03-14T05:57:28;3.20;;;2.93;;
59907;SDS011;61804;54.926;73.496;2023-03-14T06:00:15;2.63;;;2.30;;
59907;SDS011;61804;54.926;73.496;2023-03-14T06:03:10;2.95;;;2.65;;
59907;SDS011;61804;54.926;73.496;2023-03-14T06:05:43;4.32;;;3.08;;
59907;SDS011;61804;54.926;73.496;2023-03-14T06:08:10;4.00;;;2.67;;
59907;SDS011;61804;54.926;73.496;2023-03-14T06:10:38;7.55;;;3.03;;
59907;SDS011;61804;54.926;73.496;2023-03-14T06:13:06;8.65;;;3.35;;
59907;SDS011;61804;54.926;73.496;2023-03-14T06:15:34;5.10;;;2.33;;
59907;SDS011;61804;54.926;73.496;2023-03-14T06:18:03;2.33;;;2.13;;
59907;SDS011;61804;54.926;73.496;2023-03-14T06:20:31;2.67;;;2.47;;
59907;SDS011;61804;54.926;73.496;2023-03-14T06:23:00;2.90;;;2.33;;
59907;SDS011;61804;54.926;73.496;2023-03-14T06:25:31;3.15;;;2.83;;
59907;SDS011;61804;54.926;73.496;2023-03-14T06:28:00;4.22;;;3.05;;
59907;SDS011;61804;54.926;73.496;2023-03-14T06:30:28;3.47;;;3.10;;
59907;SDS011;61804;54.926;73.496;2023-03-14T06:32:56;6.10;;;3.88;;
59907;SDS011;61804;54.926;73.496;2023-03-14T06:35:27;3.40;;;3.17;;
59907;SDS011;61804;54.926;73.496;2023-03-14T06:37:59;4.60;;;4.18;;
59907;SDS011;61804;54.926;73.496;2023-03-14T06:40:27;2.88;;;2.60;;
59907;SDS011;61804;54.926;73.496;2023-03-14T06:43:01;6.20;;;3.45;;
59907;SDS011;61804;54.926;73.496;2023-03-14T06:45:36;4.32;;;3.67;;
59907;SDS011;61804;54.926;73.496;2023-03-14T06:48:04;3.08;;;2.78;;
59907;SDS011;61804;54.926;73.496;2023-03-14T06:50:49;6.50;;;3.67;;
59907;SDS011;61804;54.926;73.496;2023-03-14T06:53:16;3.58;;;3.28;;
59907;SDS011;61804;54.926;73.496;2023-03-14T06:55:49;6.88;;;5.47;;
59907;SDS011;61804;54.926;73.496;2023-03-14T06:58:19;5.97;;;3.83;;
59907;SDS011;61804;54.926;73.496;2023-03-14T07:00:57;9.73;;;5.68;;
59907;SDS011;61804;54.926;73.496;2023-03-14T07:03:31;6.22;;;2.30;;
59907;SDS011;61804;54.926;73.496;2023-03-14T07:06:01;3.70;;;2.65;;
59907;SDS011;61804;54.926;73.496;2023-03-14T07:08:28;5.57;;;4.47;;
59907;SDS011;61804;54.926;73.496;2023-03-14T07:10:56;8.40;;;5.40;;
59907;SDS011;61804;54.926;73.496;2023-03-14T07:13:24;7.47;;;4.18;;
59907;SDS011;61804;54.926;73.496;2023-03-14T07:16:11;4.78;;;3.67;;
59907;SDS011;61804;54.926;73.496;2023-03-14T07:18:38;4.68;;;3.40;;
59907;SDS011;61804;54.926;73.496;2023-03-14T07:21:07;5.22;;;3.22;;
59907;SDS011;61804;54.926;73.496;2023-03-14T07:23:36;4.93;;;3.75;;
59907;SDS011;61804;54.926;73.496;2023-03-14T07:26:04;8.77;;;5.10;;
59907;SDS011;61804;54.926;73.496;2023-03-14T07:28:33;4.97;;;4.35;;
59907;SDS011;61804;54.926;73.496;2023-03-14T07:33:35;10.32;;;5.35;;
59907;SDS011;61804;54.926;73.496;2023-03-14T07:36:03;6.22;;;5.60;;
59907;SDS011;61804;54.926;73.496;2023-03-14T07:38:32;7.45;;;4.35;;
59907;SDS011;61804;54.926;73.496;2023-03-14T07:41:22;3.63;;;2.10;;
59907;SDS011;61804;54.926;73.496;2023-03-14T07:44:24;11.68;;;7.05;;
59907;SDS011;61804;54.926;73.496;2023-03-14T07:46:52;9.52;;;7.80;;
59907;SDS011;61804;54.926;73.496;2023-03-14T07:49:22;10.00;;;6.15;;
59907;SDS011;61804;54.926;73.496;2023-03-14T07:51:50;14.75;;;8.45;;
59907;SDS011;61804;54.926;73.496;2023-03-14T07:54:23;7.10;;;5.00;;
59907;SDS011;61804;54.926;73.496;2023-03-14T07:56:57;7.88;;;6.00;;
59907;SDS011;61804;54.926;73.496;2023-03-14T07:59:27;5.60;;;2.70;;
59907;SDS011;61804;54.926;73.496;2023-03-14T08:01:55;7.80;;;4.95;;
59907;SDS011;61804;54.926;73.496;2023-03-14T08:04:22;10.90;;;5.55;;
59907;SDS011;61804;54.926;73.496;2023-03-14T08:06:51;10.13;;;3.92;;
59907;SDS011;61804;54.926;73.496;2023-03-14T08:09:21;5.32;;;3.55;;
59907;SDS011;61804;54.926;73.496;2023-03-14T08:11:49;5.68;;;3.35;;
59907;SDS011;61804;54.926;73.496;2023-03-14T08:14:16;5.28;;;3.22;;
59907;SDS011;61804;54.926;73.496;2023-03-14T08:16:43;3.97;;;3.05;;
59907;SDS011;61804;54.926;73.496;2023-03-14T08:19:10;6.03;;;3.10;;
59907;SDS011;61804;54.926;73.496;2023-03-14T08:21:49;9.90;;;3.53;;
59907;SDS011;61804;54.926;73.496;2023-03-14T08:24:21;3.10;;;2.45;;
59907;SDS011;61804;54.926;73.496;2023-03-14T08:26:48;4.65;;;2.88;;
59907;SDS011;61804;54.926;73.496;2023-03-14T08:29:16;2.97;;;2.40;;
59907;SDS011;61804;54.926;73.496;2023-03-14T08:31:43;2.53;;;2.22;;
59907;SDS011;61804;54.926;73.496;2023-03-14T08:34:11;3.95;;;2.05;;
59907;SDS011;61804;54.926;73.496;2023-03-14T08:36:42;3.88;;;2.90;;
59907;SDS011;61804;54.926;73.496;2023-03-14T08:39:10;5.72;;;2.88;;
59907;SDS011;61804;54.926;73.496;2023-03-14T08:41:37;4.57;;;2.60;;
59907;SDS011;61804;54.926;73.496;2023-03-14T08:44:11;3.58;;;1.75;;
59907;SDS011;61804;54.926;73.496;2023-03-14T08:46:39;2.53;;;2.17;;
59907;SDS011;61804;54.926;73.496;2023-03-14T08:49:14;5.50;;;3.35;;
59907;SDS011;61804;54.926;73.496;2023-03-14T08:51:43;3.78;;;3.00;;
59907;SDS011;61804;54.926;73.496;2023-03-14T08:54:16;2.58;;;1.90;;
59907;SDS011;61804;54.926;73.496;2023-03-14T08:56:55;4.85;;;3.50;;
59907;SDS011;61804;54.926;73.496;2023-03-14T08:59:32;3.47;;;2.22;;
59907;SDS011;61804;54.926;73.496;2023-03-14T09:01:59;2.33;;;1.88;;
59907;SDS011;61804;54.926;73.496;2023-03-14T09:04:33;2.60;;;2.38;;
59907;SDS011;61804;54.926;73.496;2023-03-14T09:07:05;2.38;;;2.05;;
59907;SDS011;61804;54.926;73.496;2023-03-14T09:09:33;3.65;;;3.33;;
59907;SDS011;61804;54.926;73.496;2023-03-14T09:12:00;4.25;;;3.85;;
59907;SDS011;61804;54.926;73.496;2023-03-14T09:14:28;8.05;;;3.70;;
59907;SDS011;61804;54.926;73.496;2023-03-14T09:16:56;8.57;;;5.88;;
59907;SDS011;61804;54.926;73.496;2023-03-14T09:19:23;5.50;;;3.22;;
59907;SDS011;61804;54.926;73.496;2023-03-14T09:21:50;4.80;;;2.50;;
59907;SDS011;61804;54.926;73.496;2023-03-14T09:24:18;11.50;;;5.65;;
59907;SDS011;61804;54.926;73.496;2023-03-14T09:26:54;8.43;;;5.25;;
59907;SDS011;61804;54.926;73.496;2023-03-14T09:29:21;6.55;;;4.40;;
59907;SDS011;61804;54.926;73.496;2023-03-14T09:31:48;3.55;;;3.22;;
59907;SDS011;61804;54.926;73.496;2023-03-14T09:34:28;5.82;;;2.90;;
59907;SDS011;61804;54.926;73.496;2023-03-14T09:36:56;5.00;;;3.53;;
59907;SDS011;61804;54.926;73.496;2023-03-14T09:39:28;5.35;;;3.13;;
59907;SDS011;61804;54.926;73.496;2023-03-14T09:41:56;3.08;;;2.53;;
59907;SDS011;61804;54.926;73.496;2023-03-14T09:44:32;3.08;;;2.28;;
59907;SDS011;61804;54.926;73.496;2023-03-14T09:47:06;4.25;;;2.72;;
59907;SDS011;61804;54.926;73.496;2023-03-14T09:49:40;4.07;;;2.33;;
59907;SDS011;61804;54.926;73.496;2023-03-14T09:52:18;3.30;;;2.42;;
59907;SDS011;61804;54.926;73.496;2023-03-14T09:54:54;4.60;;;3.13;;
59907;SDS011;61804;54.926;73.496;2023-03-14T09:57:25;5.35;;;3.03;;
59907;SDS011;61804;54.926;73.496;2023-03-14T09:59:54;4.05;;;1.63;;
59907;SDS011;61804;54.926;73.496;2023-03-14T10:02:34;6.78;;;2.65;;
59907;SDS011;61804;54.926;73.496;2023-03-14T10:05:01;2.63;;;2.38;;
59907;SDS011;61804;54.926;73.496;2023-03-14T10:07:32;5.57;;;1.95;;
59907;SDS011;61804;54.926;73.496;2023-03-14T10:10:00;3.78;;;2.03;;
59907;SDS011;61804;54.926;73.496;2023-03-14T10:12:32;3.38;;;2.80;;
59907;SDS011;61804;54.926;73.496;2023-03-14T10:15:07;2.22;;;2.05;;
59907;SDS011;61804;54.926;73.496;2023-03-14T10:17:41;5.65;;;1.65;;
59907;SDS011;61804;54.926;73.496;2023-03-14T10:25:48;3.03;;;1.90;;
59907;SDS011;61804;54.926;73.496;2023-03-14T10:31:08;4.10;;;2.03;;
59907;SDS011;61804;54.926;73.496;2023-03-14T10:33:37;14.13;;;3.90;;
59907;SDS011;61804;54.926;73.496;2023-03-14T10:36:06;11.45;;;5.68;;
59907;SDS011;61804;54.926;73.496;2023-03-14T10:38:44;7.53;;;3.58;;
59907;SDS011;61804;54.926;73.496;2023-03-14T10:43:51;5.25;;;2.17;;
59907;SDS011;61804;54.926;73.496;2023-03-14T10:46:28;4.28;;;2.63;;
59907;SDS011;61804;54.926;73.496;2023-03-14T10:49:31;5.40;;;3.97;;
59907;SDS011;61804;54.926;73.496;2023-03-14T10:55:03;8.10;;;3.25;;
59907;SDS011;61804;54.926;73.496;2023-03-14T10:57:30;5.32;;;4.35;;
59907;SDS011;61804;54.926;73.496;2023-03-14T10:59:58;4.13;;;2.45;;
59907;SDS011;61804;54.926;73.496;2023-03-14T11:08:02;5.88;;;2.15;;
59907;SDS011;61804;54.926;73.496;2023-03-14T11:10:33;3.22;;;2.13;;
59907;SDS011;61804;54.926;73.496;2023-03-14T11:18:44;4.45;;;2.88;;
59907;SDS011;61804;54.926;73.496;2023-03-14T11:28:39;4.32;;;3.40;;
59907;SDS011;61804;54.926;73.496;2023-03-14T11:31:15;4.18;;;3.03;;
59907;SDS011;61804;54.926;73.496;2023-03-14T11:33:47;7.20;;;3.47;;
59907;SDS011;61804;54.926;73.496;2023-03-14T11:36:27;7.45;;;4.63;;
59907;SDS011;61804;54.926;73.496;2023-03-14T11:38:56;9.27;;;5.00;;
59907;SDS011;61804;54.926;73.496;2023-03-14T11:41:26;5.95;;;5.00;;
59907;SDS011;61804;54.926;73.496;2023-03-14T11:43:58;4.30;;;3.10;;
59907;SDS011;61804;54.926;73.496;2023-03-14T11:46:28;5.72;;;5.13;;
59907;SDS011;61804;54.926;73.496;2023-03-14T11:51:34;7.97;;;4.93;;
59907;SDS011;61804;54.926;73.496;2023-03-14T11:56:37;16.10;;;9.63;;
59907;SDS011;61804;54.926;73.496;2023-03-14T11:59:14;10.88;;;8.40;;
59907;SDS011;61804;54.926;73.496;2023-03-14T12:07:23;18.13;;;10.25;;
59907;SDS011;61804;54.926;73.496;2023-03-14T12:09:54;16.08;;;9.02;;
59907;SDS011;61804;54.926;73.496;2023-03-14T12:12:24;16.13;;;10.68;;
59907;SDS011;61804;54.926;73.496;2023-03-14T12:14:59;10.73;;;8.48;;
59907;SDS011;61804;54.926;73.496;2023-03-14T12:17:34;14.35;;;8.63;;
59907;SDS011;61804;54.926;73.496;2023-03-14T12:20:16;6.00;;;4.57;;
59907;SDS011;61804;54.926;73.496;2023-03-14T12:22:52;9.45;;;5.32;;
59907;SDS011;61804;54.926;73.496;2023-03-14T12:25:21;4.70;;;3.97;;
59907;SDS011;61804;54.926;73.496;2023-03-14T12:35:45;7.88;;;4.72;;
59907;SDS011;61804;54.926;73.496;2023-03-14T12:38:16;5.65;;;4.82;;
59907;SDS011;61804;54.926;73.496;2023-03-14T12:41:00;13.65;;;11.10;;
59907;SDS011;61804;54.926;73.496;2023-03-14T12:43:37;8.98;;;6.18;;
59907;SDS011;61804;54.926;73.496;2023-03-14T12:46:19;7.93;;;4.40;;
59907;SDS011;61804;54.926;73.496;2023-03-14T12:54:14;5.63;;;3.58;;
59907;SDS011;61804;54.926;73.496;2023-03-14T12:56:51;7.65;;;6.95;;
59907;SDS011;61804;54.926;73.496;2023-03-14T12:59:30;9.45;;;8.48;;
59907;SDS011;61804;54.926;73.496;2023-03-14T13:02:00;14.10;;;9.93;;
59907;SDS011;61804;54.926;73.496;2023-03-14T13:04:34;15.70;;;10.77;;
59907;SDS011;61804;54.926;73.496;2023-03-14T13:07:02;7.80;;;5.97;;
59907;SDS011;61804;54.926;73.496;2023-03-14T13:09:35;7.18;;;6.47;;
59907;SDS011;61804;54.926;73.496;2023-03-14T13:12:09;9.35;;;5.88;;
59907;SDS011;61804;54.926;73.496;2023-03-14T13:14:43;6.38;;;4.55;;
59907;SDS011;61804;54.926;73.496;2023-03-14T13:17:12;6.63;;;5.00;;
59907;SDS011;61804;54.926;73.496;2023-03-14T13:19:48;17.52;;;12.68;;
59907;SDS011;61804;54.926;73.496;2023-03-14T13:22:22;6.20;;;5.38;;
59907;SDS011;61804;54.926;73.496;2023-03-14T13:25:02;11.15;;;7.50;;
59907;SDS011;61804;54.926;73.496;2023-03-14T13:27:30;8.00;;;6.93;;
59907;SDS011;61804;54.926;73.496;2023-03-14T13:30:14;12.88;;;8.30;;
59907;SDS011;61804;54.926;73.496;2023-03-14T13:32:43;10.82;;;8.05;;
59907;SDS011;61804;54.926;73.496;2023-03-14T13:35:18;19.65;;;11.85;;
59907;SDS011;61804;54.926;73.496;2023-03-14T13:37:46;15.43;;;11.77;;
59907;SDS011;61804;54.926;73.496;2023-03-14T13:40:24;9.98;;;8.30;;
59907;SDS011;61804;54.926;73.496;2023-03-14T13:43:03;10.45;;;6.22;;
59907;SDS011;61804;54.926;73.496;2023-03-14T13:45:43;10.35;;;5.88;;
59907;SDS011;61804;54.926;73.496;2023-03-14T13:48:11;23.83;;;11.38;;
59907;SDS011;61804;54.926;73.496;2023-03-14T13:51:00;11.02;;;6.82;;
59907;SDS011;61804;54.926;73.496;2023-03-14T13:53:48;16.23;;;9.18;;
59907;SDS011;61804;54.926;73.496;2023-03-14T13:56:27;18.17;;;8.15;;
59907;SDS011;61804;54.926;73.496;2023-03-14T13:59:00;11.18;;;7.10;;
59907;SDS011;61804;54.926;73.496;2023-03-14T14:01:29;8.35;;;7.05;;
59907;SDS011;61804;54.926;73.496;2023-03-14T14:04:08;19.30;;;11.88;;
59907;SDS011;61804;54.926;73.496;2023-03-14T14:06:36;26.52;;;16.55;;
59907;SDS011;61804;54.926;73.496;2023-03-14T14:09:10;7.78;;;5.38;;
59907;SDS011;61804;54.926;73.496;2023-03-14T14:14:18;16.95;;;8.82;;
59907;SDS011;61804;54.926;73.496;2023-03-14T14:16:52;9.70;;;6.25;;
59907;SDS011;61804;54.926;73.496;2023-03-14T14:19:30;27.35;;;16.13;;
59907;SDS011;61804;54.926;73.496;2023-03-14T14:22:00;27.20;;;16.77;;
59907;SDS011;61804;54.926;73.496;2023-03-14T14:24:32;23.63;;;16.00;;
59907;SDS011;61804;54.926;73.496;2023-03-14T14:27:16;17.67;;;13.40;;
59907;SDS011;61804;54.926;73.496;2023-03-14T14:29:59;48.63;;;19.50;;
59907;SDS011;61804;54.926;73.496;2023-03-14T14:32:37;20.52;;;11.60;;
59907;SDS011;61804;54.926;73.496;2023-03-14T14:35:05;26.23;;;17.92;;
59907;SDS011;61804;54.926;73.496;2023-03-14T14:37:34;21.05;;;13.48;;
59907;SDS011;61804;54.926;73.496;2023-03-14T14:40:16;13.95;;;10.65;;
59907;SDS011;61804;54.926;73.496;2023-03-14T14:42:44;20.33;;;11.40;;
59907;SDS011;61804;54.926;73.496;2023-03-14T14:45:24;19.77;;;10.57;;
59907;SDS011;61804;54.926;73.496;2023-03-14T14:47:58;15.77;;;11.48;;
59907;SDS011;61804;54.926;73.496;2023-03-14T14:50:44;15.63;;;10.90;;
59907;SDS011;61804;54.926;73.496;2023-03-14T14:55:58;9.18;;;7.25;;
59907;SDS011;61804;54.926;73.496;2023-03-14T14:58:28;16.20;;;10.18;;
59907;SDS011;61804;54.926;73.496;2023-03-14T15:01:16;10.55;;;7.78;;
59907;SDS011;61804;54.926;73.496;2023-03-14T15:03:45;18.63;;;10.75;;
59907;SDS011;61804;54.926;73.496;2023-03-14T15:06:13;21.02;;;11.55;;
59907;SDS011;61804;54.926;73.496;2023-03-14T15:08:43;19.05;;;13.50;;
59907;SDS011;61804;54.926;73.496;2023-03-14T15:11:19;12.10;;;10.88;;
59907;SDS011;61804;54.926;73.496;2023-03-14T15:13:56;14.68;;;9.90;;
59907;SDS011;61804;54.926;73.496;2023-03-14T15:16:27;8.25;;;5.90;;
59907;SDS011;61804;54.926;73.496;2023-03-14T15:19:01;10.13;;;4.75;;
59907;SDS011;61804;54.926;73.496;2023-03-14T15:21:44;10.38;;;6.50;;
59907;SDS011;61804;54.926;73.496;2023-03-14T15:24:11;6.43;;;4.55;;
59907;SDS011;61804;54.926;73.496;2023-03-14T15:26:39;9.55;;;6.50;;
59907;SDS011;61804;54.926;73.496;2023-03-14T15:29:08;6.28;;;3.90;;
59907;SDS011;61804;54.926;73.496;2023-03-14T15:31:39;8.70;;;5.03;;
59907;SDS011;61804;54.926;73.496;2023-03-14T15:34:17;7.07;;;5.25;;
59907;SDS011;61804;54.926;73.496;2023-03-14T15:36:44;5.03;;;3.63;;
59907;SDS011;61804;54.926;73.496;2023-03-14T15:39:11;6.07;;;3.97;;
59907;SDS011;61804;54.926;73.496;2023-03-14T15:41:44;9.75;;;5.70;;
59907;SDS011;61804;54.926;73.496;2023-03-14T15:44:12;6.13;;;5.43;;
59907;SDS011;61804;54.926;73.496;2023-03-14T15:46:40;6.60;;;5.30;;
59907;SDS011;61804;54.926;73.496;2023-03-14T15:49:13;5.82;;;5.30;;
59907;SDS011;61804;54.926;73.496;2023-03-14T15:51:41;4.65;;;3.65;;
59907;SDS011;61804;54.926;73.496;2023-03-14T15:54:09;9.18;;;5.05;;
59907;SDS011;61804;54.926;73.496;2023-03-14T15:56:42;11.35;;;8.07;;
59907;SDS011;61804;54.926;73.496;2023-03-14T15:59:09;25.15;;;15.60;;
59907;SDS011;61804;54.926;73.496;2023-03-14T16:01:37;9.93;;;6.97;;
59907;SDS011;61804;54.926;73.496;2023-03-14T16:04:04;11.45;;;6.00;;
59907;SDS011;61804;54.926;73.496;2023-03-14T16:06:32;12.75;;;7.75;;
59907;SDS011;61804;54.926;73.496;2023-03-14T16:09:00;14.68;;;9.90;;
59907;SDS011;61804;54.926;73.496;2023-03-14T16:11:27;12.48;;;8.50;;
59907;SDS011;61804;54.926;73.496;2023-03-14T16:13:56;5.82;;;4.30;;
59907;SDS011;61804;54.926;73.496;2023-03-14T16:16:31;6.03;;;5.13;;
59907;SDS011;61804;54.926;73.496;2023-03-14T16:19:10;11.95;;;6.18;;
59907;SDS011;61804;54.926;73.496;2023-03-14T16:21:48;11.80;;;8.68;;
59907;SDS011;61804;54.926;73.496;2023-03-14T16:24:16;10.77;;;6.97;;
59907;SDS011;61804;54.926;73.496;2023-03-14T16:26:53;14.43;;;6.20;;
59907;SDS011;61804;54.926;73.496;2023-03-14T16:29:21;14.30;;;7.25;;
59907;SDS011;61804;54.926;73.496;2023-03-14T16:31:58;10.20;;;5.60;;
59907;SDS011;61804;54.926;73.496;2023-03-14T16:34:26;12.25;;;5.82;;
59907;SDS011;61804;54.926;73.496;2023-03-14T16:36:53;4.03;;;3.33;;
59907;SDS011;61804;54.926;73.496;2023-03-14T16:39:21;8.52;;;5.10;;